Time,TemperatureF,DewpointF,PressureIn,WindDirection,WindDirectionDegrees,WindSpeedMPH,WindSpeedGustMPH,Humidity,HourlyPrecipIn,Conditions,Clouds,dailyrainin,SoftwareType,DateUTC
2013-02-09 00:03:00,31.0,18.0,29.59,ESE,102,0.0,0.0,58,0.00,,,-99.99,VWS V12.07,2013-02-09 07:03:00,
2013-02-09 00:09:00,30.9,18.3,29.59,ESE,102,0.0,1.0,59,0.00,,,-99.99,VWS V12.07,2013-02-09 07:09:00,
2013-02-09 00:15:00,30.9,19.0,29.59,ESE,103,0.0,0.0,61,0.00,,,-99.99,VWS V12.07,2013-02-09 07:15:00,
2013-02-09 00:21:00,30.9,20.2,29.59,ESE,102,0.0,0.0,64,0.00,,,-99.99,VWS V12.07,2013-02-09 07:21:00,
2013-02-09 00:27:00,31.0,19.9,29.58,ESE,102,0.0,0.0,63,0.00,,,-99.99,VWS V12.07,2013-02-09 07:27:00,
2013-02-09 00:33:00,31.2,20.1,29.58,ESE,102,0.0,0.0,63,0.00,,,-99.99,VWS V12.07,2013-02-09 07:33:00,
2013-02-09 00:39:00,31.3,20.5,29.58,ESE,103,0.0,0.0,64,0.00,,,-99.99,VWS V12.07,2013-02-09 07:39:00,
2013-02-09 00:45:00,31.3,20.5,29.57,ESE,103,0.0,0.0,64,0.00,,,-99.99,VWS V12.07,2013-02-09 07:45:00,
2013-02-09 00:51:00,31.6,21.6,29.57,ESE,103,0.0,0.0,66,0.00,,,-99.99,VWS V12.07,2013-02-09 07:51:00,
2013-02-09 00:57:00,31.8,22.1,29.56,ESE,103,0.0,0.0,67,0.00,,,-99.99,VWS V12.07,2013-02-09 07:57:00,
2013-02-09 01:03:00,32.1,22.4,29.56,ESE,102,0.0,0.0,67,0.00,,,-99.99,VWS V12.07,2013-02-09 08:03:00,
2013-02-09 01:09:00,32.4,23.0,29.56,ESE,102,1.0,1.0,68,0.00,,,-99.99,VWS V12.07,2013-02-09 08:09:00,
2013-02-09 01:15:00,32.9,23.2,29.54,SSE,158,3.0,3.0,67,0.00,,,-99.99,VWS V12.07,2013-02-09 08:15:00,
2013-02-09 01:21:00,33.5,23.0,29.54,SSE,158,0.0,3.0,65,0.00,,,-99.99,VWS V12.07,2013-02-09 08:21:00,
2013-02-09 01:27:00,34.0,23.1,29.54,SSE,158,2.0,2.0,64,0.00,,,-99.99,VWS V12.07,2013-02-09 08:27:00,
2013-02-09 01:33:00,34.3,23.4,29.54,SSE,158,1.0,3.0,64,0.00,,,-99.99,VWS V12.07,2013-02-09 08:33:00,
2013-02-09 01:39:00,34.4,23.1,29.54,SSE,158,1.0,3.0,63,0.00,,,-99.99,VWS V12.07,2013-02-09 08:39:00,
2013-02-09 01:45:00,34.7,23.4,29.53,South,172,2.0,3.0,63,0.00,,,-99.99,VWS V12.07,2013-02-09 08:45:00,
2013-02-09 01:51:00,34.7,25.6,29.53,South,185,6.0,6.0,69,0.00,,,-99.99,VWS V12.07,2013-02-09 08:51:00,
2013-02-09 01:57:00,34.0,26.9,29.54,South,185,3.0,3.0,75,0.00,,,-99.99,VWS V12.07,2013-02-09 08:57:00,
2013-02-09 02:03:00,33.1,27.3,29.54,South,185,2.0,2.0,79,0.00,,,-99.99,VWS V12.07,2013-02-09 09:03:00,
2013-02-09 02:09:00,32.5,27.6,29.54,South,185,2.0,2.0,82,0.00,,,-99.99,VWS V12.07,2013-02-09 09:09:00,
2013-02-09 02:15:00,32.2,27.9,29.55,South,185,0.0,1.0,84,0.00,,,-99.99,VWS V12.07,2013-02-09 09:15:00,
2013-02-09 02:21:00,31.9,27.9,29.55,West,272,6.0,6.0,85,0.00,,,-99.99,VWS V12.07,2013-02-09 09:21:00,
2013-02-09 02:27:00,31.2,27.5,29.58,WSW,244,0.0,5.0,86,0.00,,,-99.99,VWS V12.07,2013-02-09 09:27:00,
2013-02-09 02:33:00,30.7,27.0,29.58,WSW,257,0.0,0.0,86,0.00,,,-99.99,VWS V12.07,2013-02-09 09:33:00,
2013-02-09 02:39:00,30.4,26.7,29.58,WSW,257,0.0,0.0,86,0.00,,,-99.99,VWS V12.07,2013-02-09 09:39:00,
2013-02-09 02:45:00,30.3,26.9,29.57,WSW,257,0.0,0.0,87,0.00,,,-99.99,VWS V12.07,2013-02-09 09:45:00,
2013-02-09 02:51:00,30.0,26.6,29.57,WSW,258,0.0,0.0,87,0.00,,,-99.99,VWS V12.07,2013-02-09 09:51:00,
2013-02-09 02:57:00,29.8,26.1,29.57,WSW,258,0.0,0.0,86,0.00,,,-99.99,VWS V12.07,2013-02-09 09:57:00,
2013-02-09 03:03:00,29.5,26.1,29.57,West,268,0.0,0.0,87,0.00,,,-99.99,VWS V12.07,2013-02-09 10:03:00,
2013-02-09 03:09:00,29.4,25.7,29.57,NW,306,0.0,0.0,86,0.00,,,-99.99,VWS V12.07,2013-02-09 10:09:00,
2013-02-09 03:15:00,29.1,25.4,29.57,NW,306,0.0,0.0,86,0.00,,,-99.99,VWS V12.07,2013-02-09 10:15:00,
2013-02-09 03:21:00,28.8,25.1,29.57,NW,308,0.0,0.0,86,0.00,,,-99.99,VWS V12.07,2013-02-09 10:21:00,
2013-02-09 03:27:00,28.5,24.9,29.56,NW,308,0.0,0.0,86,0.00,,,-99.99,VWS V12.07,2013-02-09 10:27:00,
2013-02-09 03:33:00,28.4,24.8,29.56,NNE,16,0.0,0.0,86,0.00,,,-99.99,VWS V12.07,2013-02-09 10:33:00,
2013-02-09 03:39:00,27.8,23.9,29.56,NNE,16,0.0,0.0,85,0.00,,,-99.99,VWS V12.07,2013-02-09 10:39:00,
2013-02-09 03:45:00,27.5,23.6,29.58,NNE,16,0.0,0.0,85,0.00,,,-99.99,VWS V12.07,2013-02-09 10:45:00,
2013-02-09 03:51:00,27.0,23.1,29.58,NNE,16,0.0,0.0,85,0.00,,,-99.99,VWS V12.07,2013-02-09 10:51:00,
2013-02-09 03:57:00,26.6,22.4,29.58,NNE,16,0.0,0.0,84,0.00,,,-99.99,VWS V12.07,2013-02-09 10:57:00,
2013-02-09 04:03:00,26.1,21.9,29.58,NNE,16,0.0,0.0,84,0.00,,,-99.99,VWS V12.07,2013-02-09 11:03:00,
2013-02-09 04:09:00,25.6,21.5,29.58,NNE,16,0.0,0.0,84,0.00,,,-99.99,VWS V12.07,2013-02-09 11:09:00,
2013-02-09 04:15:00,24.8,20.4,29.60,NNE,16,0.0,0.0,83,0.00,,,-99.99,VWS V12.07,2013-02-09 11:15:00,
2013-02-09 04:21:00,24.4,20.0,29.60,NNE,16,0.0,0.0,83,0.00,,,-99.99,VWS V12.07,2013-02-09 11:21:00,
2013-02-09 04:27:00,23.9,19.8,29.60,NNE,16,0.0,0.0,84,0.00,,,-99.99,VWS V12.07,2013-02-09 11:27:00,
2013-02-09 04:33:00,23.6,19.8,29.60,NNE,16,0.0,0.0,85,0.00,,,-99.99,VWS V12.07,2013-02-09 11:33:00,
2013-02-09 04:39:00,24.1,20.5,29.60,NNE,16,0.0,0.0,86,0.00,,,-99.99,VWS V12.07,2013-02-09 11:39:00,
2013-02-09 04:45:00,24.7,21.7,29.59,NNE,17,0.0,0.0,88,0.00,,,-99.99,VWS V12.07,2013-02-09 11:45:00,
2013-02-09 04:51:00,25.6,22.5,29.59,NNE,17,0.0,0.0,88,0.00,,,-99.99,VWS V12.07,2013-02-09 11:51:00,
2013-02-09 04:57:00,26.0,22.9,29.58,NNE,17,0.0,0.0,88,0.00,,,-99.99,VWS V12.07,2013-02-09 11:57:00,
2013-02-09 05:03:00,26.0,22.9,29.58,NNE,17,0.0,0.0,88,0.00,,,-99.99,VWS V12.07,2013-02-09 12:03:00,
2013-02-09 05:09:00,25.8,22.7,29.58,NNE,17,0.0,0.0,88,0.00,,,-99.99,VWS V12.07,2013-02-09 12:09:00,
2013-02-09 05:15:00,25.6,22.3,29.59,NNE,17,0.0,0.0,87,0.00,,,-99.99,VWS V12.07,2013-02-09 12:15:00,
2013-02-09 05:21:00,25.4,22.1,29.59,NNE,17,0.0,0.0,87,0.00,,,-99.99,VWS V12.07,2013-02-09 12:21:00,
2013-02-09 05:27:00,24.8,20.9,29.61,NNE,17,0.0,0.0,85,0.00,,,-99.99,VWS V12.07,2013-02-09 12:27:00,
2013-02-09 05:33:00,24.1,20.2,29.61,NNE,18,0.0,0.0,85,0.00,,,-99.99,VWS V12.07,2013-02-09 12:33:00,
2013-02-09 05:39:00,23.6,19.8,29.61,NNE,18,0.0,0.0,85,0.00,,,-99.99,VWS V12.07,2013-02-09 12:39:00,
2013-02-09 05:45:00,23.6,20.0,29.61,NNE,18,0.0,0.0,86,0.00,,,-99.99,VWS V12.07,2013-02-09 12:45:00,
2013-02-09 05:51:00,23.9,20.6,29.61,NNE,21,0.0,0.0,87,0.00,,,-99.99,VWS V12.07,2013-02-09 12:51:00,
2013-02-09 05:57:00,24.2,20.9,29.61,NNE,21,0.0,0.0,87,0.00,,,-99.99,VWS V12.07,2013-02-09 12:57:00,
2013-02-09 06:03:00,24.7,21.4,29.61,NNE,21,0.0,0.0,87,0.00,,,-99.99,VWS V12.07,2013-02-09 13:03:00,
2013-02-09 06:09:00,25.1,21.8,29.61,NNE,20,0.0,0.0,87,0.00,,,-99.99,VWS V12.07,2013-02-09 13:09:00,
2013-02-09 06:15:00,25.7,21.8,29.63,NW,316,0.0,0.0,85,0.00,,,-99.99,VWS V12.07,2013-02-09 13:15:00,
2013-02-09 06:21:00,25.8,21.6,29.63,NW,316,0.0,0.0,84,0.00,,,-99.99,VWS V12.07,2013-02-09 13:21:00,
2013-02-09 06:27:00,25.6,21.2,29.63,NW,325,0.0,0.0,83,0.00,,,-99.99,VWS V12.07,2013-02-09 13:27:00,
2013-02-09 06:33:00,25.3,21.1,29.63,NW,325,0.0,0.0,84,0.00,,,-99.99,VWS V12.07,2013-02-09 13:33:00,
2013-02-09 06:39:00,25.0,20.9,29.63,NW,325,0.0,0.0,84,0.00,,,-99.99,VWS V12.07,2013-02-09 13:39:00,
2013-02-09 06:45:00,24.8,20.7,29.64,NW,325,0.0,0.0,84,0.00,,,-99.99,VWS V12.07,2013-02-09 13:45:00,
2013-02-09 06:51:00,24.7,20.6,29.64,NW,325,0.0,0.0,84,0.00,,,-99.99,VWS V12.07,2013-02-09 13:51:00,
2013-02-09 06:57:00,24.5,20.4,29.65,NW,325,0.0,0.0,84,0.00,,,-99.99,VWS V12.07,2013-02-09 13:57:00,
2013-02-09 07:03:00,24.4,20.5,29.65,NW,325,0.0,0.0,85,0.00,,,-99.99,VWS V12.07,2013-02-09 14:03:00,
2013-02-09 07:09:00,24.2,20.4,29.65,NW,325,0.0,0.0,85,0.00,,,-99.99,VWS V12.07,2013-02-09 14:09:00,
2013-02-09 07:15:00,24.1,20.2,29.67,NW,325,0.0,0.0,85,0.00,,,-99.99,VWS V12.07,2013-02-09 14:15:00,
2013-02-09 07:21:00,23.8,20.0,29.67,NW,325,0.0,0.0,85,0.00,,,-99.99,VWS V12.07,2013-02-09 14:21:00,
2013-02-09 07:27:00,23.8,20.2,29.67,NW,325,0.0,0.0,86,0.00,,,-99.99,VWS V12.07,2013-02-09 14:27:00,
2013-02-09 07:33:00,23.8,20.2,29.67,NW,325,0.0,0.0,86,0.00,,,-99.99,VWS V12.07,2013-02-09 14:33:00,
2013-02-09 07:39:00,23.8,20.2,29.67,NW,325,0.0,0.0,86,0.00,,,-99.99,VWS V12.07,2013-02-09 14:39:00,
2013-02-09 07:45:00,24.1,20.8,29.68,NW,325,0.0,0.0,87,0.00,,,-99.99,VWS V12.07,2013-02-09 14:45:00,
2013-02-09 07:51:00,24.4,21.1,29.68,NW,325,0.0,0.0,87,0.00,,,-99.99,VWS V12.07,2013-02-09 14:51:00,
2013-02-09 07:57:00,25.3,22.2,29.68,NW,318,0.0,0.0,88,0.00,,,-99.99,VWS V12.07,2013-02-09 14:57:00,
2013-02-09 08:03:00,25.8,23.0,29.68,NW,318,0.0,0.0,89,0.00,,,-99.99,VWS V12.07,2013-02-09 15:03:00,
2013-02-09 08:09:00,26.7,23.9,29.68,West,275,0.0,0.0,89,0.00,,,-99.99,VWS V12.07,2013-02-09 15:09:00,
2013-02-09 08:17:00,27.6,24.8,29.71,WSW,258,0.0,0.0,89,0.00,,,-99.99,VWS V12.07,2013-02-09 15:17:00,
2013-02-09 08:23:00,27.9,25.1,29.71,WSW,258,0.0,0.0,89,0.00,,,-99.99,VWS V12.07,2013-02-09 15:23:00,
2013-02-09 08:29:00,28.4,25.9,29.71,WSW,258,0.0,0.0,90,0.00,,,-99.99,VWS V12.07,2013-02-09 15:29:00,
2013-02-09 08:35:00,28.5,26.0,29.71,WSW,258,0.0,0.0,90,0.00,,,-99.99,VWS V12.07,2013-02-09 15:35:00,
2013-02-09 08:41:00,28.8,26.0,29.71,WSW,258,0.0,0.0,89,0.00,,,-99.99,VWS V12.07,2013-02-09 15:41:00,
2013-02-09 08:47:00,29.0,26.4,29.71,WSW,258,0.0,0.0,90,0.00,,,-99.99,VWS V12.07,2013-02-09 15:47:00,
2013-02-09 08:53:00,29.3,26.5,29.71,WSW,258,0.0,0.0,89,0.00,,,-99.99,VWS V12.07,2013-02-09 15:53:00,
2013-02-09 08:59:00,29.4,26.8,29.72,WSW,258,0.0,0.0,90,0.00,,,-99.99,VWS V12.07,2013-02-09 15:59:00,
2013-02-09 09:05:00,29.8,27.0,29.72,WSW,257,0.0,0.0,89,0.00,,,-99.99,VWS V12.07,2013-02-09 16:05:00,
2013-02-09 09:11:00,30.1,27.3,29.72,WSW,257,0.0,0.0,89,0.00,,,-99.99,VWS V12.07,2013-02-09 16:11:00,
2013-02-09 09:17:00,30.6,27.8,29.71,WSW,240,0.0,0.0,89,0.00,,,-99.99,VWS V12.07,2013-02-09 16:17:00,
2013-02-09 09:23:00,30.6,27.5,29.71,SW,229,0.0,0.0,88,0.00,,,-99.99,VWS V12.07,2013-02-09 16:23:00,
2013-02-09 09:29:00,30.9,27.8,29.72,SW,229,0.0,0.0,88,0.00,,,-99.99,VWS V12.07,2013-02-09 16:29:00,
2013-02-09 09:35:00,31.3,27.9,29.72,SW,229,1.0,2.0,87,0.01,,,-99.99,VWS V12.07,2013-02-09 16:35:00,
2013-02-09 09:41:00,31.6,27.9,29.72,SSW,213,5.0,5.0,86,0.01,,,-99.99,VWS V12.07,2013-02-09 16:41:00,
2013-02-09 09:47:00,31.6,27.9,29.71,SSW,213,3.0,4.0,86,0.02,,,-99.99,VWS V12.07,2013-02-09 16:47:00,
2013-02-09 09:53:00,31.5,27.5,29.71,SSW,196,1.0,1.0,85,0.03,,,-99.99,VWS V12.07,2013-02-09 16:53:00,
2013-02-09 10:01:00,31.8,27.5,29.72,SSW,196,3.0,7.0,84,0.03,,,-99.99,VWS V12.07,2013-02-09 17:01:00,
2013-02-09 10:07:00,31.9,27.6,29.72,SSW,198,2.0,8.0,84,0.03,,,-99.99,VWS V12.07,2013-02-09 17:07:00,
2013-02-09 10:13:00,32.1,27.8,29.72,SSW,196,5.0,6.0,84,0.04,,,-99.99,VWS V12.07,2013-02-09 17:13:00,
2013-02-09 10:19:00,32.4,27.8,29.72,SSW,193,3.0,7.0,83,0.04,,,-99.99,VWS V12.07,2013-02-09 17:19:00,
2013-02-09 10:25:00,32.4,27.8,29.72,South,179,1.0,6.0,83,0.04,,,-99.99,VWS V12.07,2013-02-09 17:25:00,
2013-02-09 10:31:00,32.8,26.7,29.72,SW,229,2.0,3.0,78,0.04,,,-99.99,VWS V12.07,2013-02-09 17:31:00,
2013-02-09 10:37:00,32.9,26.5,29.72,SW,216,1.0,3.0,77,0.04,,,-99.99,VWS V12.07,2013-02-09 17:37:00,
2013-02-09 10:43:00,32.7,25.0,29.73,SSW,206,1.0,2.0,73,0.04,,,-99.99,VWS V12.07,2013-02-09 17:43:00,
2013-02-09 10:49:00,32.7,25.0,29.73,WNW,289,3.0,5.0,73,0.03,,,-99.99,VWS V12.07,2013-02-09 17:49:00,
2013-02-09 10:55:00,32.8,24.8,29.73,SW,234,2.0,3.0,72,0.02,,,-99.99,VWS V12.07,2013-02-09 17:55:00,
2013-02-09 11:01:00,32.9,25.5,29.73,SSW,210,3.0,5.0,74,0.03,,,-99.99,VWS V12.07,2013-02-09 18:01:00,
2013-02-09 11:07:00,33.1,25.7,29.73,SSW,210,1.0,3.0,74,0.03,,,-99.99,VWS V12.07,2013-02-09 18:07:00,
2013-02-09 11:13:00,33.1,25.7,29.75,SSW,210,1.0,1.0,74,0.02,,,-99.99,VWS V12.07,2013-02-09 18:13:00,
2013-02-09 11:19:00,33.1,25.4,29.75,SSW,202,2.0,6.0,73,0.02,,,-99.99,VWS V12.07,2013-02-09 18:19:00,
2013-02-09 11:25:00,33.2,25.5,29.75,SSW,200,2.0,6.0,73,0.02,,,-99.99,VWS V12.07,2013-02-09 18:25:00,
2013-02-09 11:31:00,33.2,25.2,29.75,South,189,5.0,7.0,72,0.03,,,-99.99,VWS V12.07,2013-02-09 18:31:00,
2013-02-09 11:37:00,33.4,25.4,29.75,South,188,4.0,6.0,72,0.03,,,-99.99,VWS V12.07,2013-02-09 18:37:00,
2013-02-09 11:45:00,33.8,26.1,29.75,South,188,2.0,3.0,73,0.02,,,-99.99,VWS V12.07,2013-02-09 18:45:00,
2013-02-09 11:53:00,34.1,25.7,29.75,South,188,3.0,6.0,71,0.02,,,-99.99,VWS V12.07,2013-02-09 18:53:00,
2013-02-09 11:59:00,34.1,25.4,29.75,South,185,4.0,4.0,70,0.01,,,-99.99,VWS V12.07,2013-02-09 18:59:00,
2013-02-09 12:05:00,34.1,25.4,29.75,South,185,7.0,7.0,70,0.01,,,-99.99,VWS V12.07,2013-02-09 19:05:00,
2013-02-09 12:11:00,34.0,25.3,29.75,South,185,3.0,5.0,70,0.01,,,-99.99,VWS V12.07,2013-02-09 19:11:00,
2013-02-09 12:17:00,34.4,26.7,29.74,South,185,3.0,6.0,73,0.01,,,-99.99,VWS V12.07,2013-02-09 19:17:00,
2013-02-09 12:23:00,34.4,25.6,29.74,South,191,3.0,8.0,70,0.01,,,-99.99,VWS V12.07,2013-02-09 19:23:00,
2013-02-09 12:29:00,34.1,24.7,29.74,SSW,205,5.0,7.0,68,0.01,,,-99.99,VWS V12.07,2013-02-09 19:29:00,
2013-02-09 12:35:00,34.0,24.6,29.74,South,176,4.0,5.0,68,0.00,,,-99.99,VWS V12.07,2013-02-09 19:35:00,
2013-02-09 12:41:00,34.0,24.6,29.74,SSW,198,2.0,8.0,68,0.00,,,-99.99,VWS V12.07,2013-02-09 19:41:00,
2013-02-09 12:47:00,34.0,24.2,29.75,SSW,198,7.0,7.0,67,0.00,,,-99.99,VWS V12.07,2013-02-09 19:47:00,
2013-02-09 12:53:00,34.1,24.7,29.75,SSW,198,3.0,4.0,68,0.00,,,-99.99,VWS V12.07,2013-02-09 19:53:00,
2013-02-09 12:59:00,34.1,24.7,29.75,SSW,198,6.0,6.0,68,0.00,,,-99.99,VWS V12.07,2013-02-09 19:59:00,
2013-02-09 13:05:00,33.8,24.0,29.75,South,181,6.0,11.0,67,0.00,,,-99.99,VWS V12.07,2013-02-09 20:05:00,
2013-02-09 13:11:00,33.8,24.7,29.75,SSW,200,1.0,6.0,69,0.00,,,-99.99,VWS V12.07,2013-02-09 20:11:00,
2013-02-09 13:17:00,33.8,23.7,29.74,SSW,198,0.0,8.0,66,0.00,,,-99.99,VWS V12.07,2013-02-09 20:17:00,
2013-02-09 13:23:00,34.1,24.7,29.74,SSW,198,2.0,3.0,68,0.00,,,-99.99,VWS V12.07,2013-02-09 20:23:00,
2013-02-09 13:29:00,34.0,24.9,29.74,SSW,202,0.0,4.0,69,0.00,,,-99.99,VWS V12.07,2013-02-09 20:29:00,
2013-02-09 13:35:00,33.8,24.7,29.74,SSW,196,6.0,8.0,69,0.00,,,-99.99,VWS V12.07,2013-02-09 20:35:00,
2013-02-09 13:41:00,33.8,25.1,29.74,South,186,5.0,8.0,70,0.00,,,-99.99,VWS V12.07,2013-02-09 20:41:00,
2013-02-09 13:47:00,34.0,25.3,29.74,SSW,199,3.0,7.0,70,0.00,,,-99.99,VWS V12.07,2013-02-09 20:47:00,
2013-02-09 13:53:00,34.1,25.0,29.74,SSW,199,2.0,3.0,69,0.00,,,-99.99,VWS V12.07,2013-02-09 20:53:00,
2013-02-09 13:59:00,34.1,25.0,29.74,SSW,199,0.0,2.0,69,0.00,,,-99.99,VWS V12.07,2013-02-09 20:59:00,
2013-02-09 14:05:00,34.3,25.2,29.74,SSW,199,6.0,6.0,69,0.00,,,-99.99,VWS V12.07,2013-02-09 21:05:00,
2013-02-09 14:11:00,34.3,25.2,29.74,SSW,199,1.0,6.0,69,0.00,,,-99.99,VWS V12.07,2013-02-09 21:11:00,
2013-02-09 14:17:00,34.4,25.6,29.76,SSW,199,3.0,7.0,70,0.00,,,-99.99,VWS V12.07,2013-02-09 21:17:00,
2013-02-09 14:23:00,34.3,25.2,29.76,SSW,205,10.0,10.0,69,0.00,,,-99.99,VWS V12.07,2013-02-09 21:23:00,
2013-02-09 14:29:00,34.0,24.9,29.76,South,184,6.0,13.0,69,0.00,,,-99.99,VWS V12.07,2013-02-09 21:29:00,
2013-02-09 14:35:00,34.0,25.6,29.76,SSW,192,3.0,4.0,71,0.00,,,-99.99,VWS V12.07,2013-02-09 21:35:00,
2013-02-09 14:41:00,34.0,25.9,29.76,SW,216,7.0,12.0,72,0.00,,,-99.99,VWS V12.07,2013-02-09 21:41:00,
2013-02-09 14:47:00,33.7,25.3,29.77,SSW,193,5.0,10.0,71,0.00,,,-99.99,VWS V12.07,2013-02-09 21:47:00,
2013-02-09 14:53:00,33.5,25.8,29.77,SSW,196,7.0,7.0,73,0.00,,,-99.99,VWS V12.07,2013-02-09 21:53:00,
2013-02-09 14:59:00,33.7,26.3,29.77,SSW,192,5.0,7.0,74,0.00,,,-99.99,VWS V12.07,2013-02-09 21:59:00,
2013-02-09 15:05:00,33.8,26.7,29.77,SSW,199,7.0,7.0,75,0.00,,,-99.99,VWS V12.07,2013-02-09 22:05:00,
2013-02-09 15:11:00,34.0,26.6,29.77,SSW,198,2.0,7.0,74,0.00,,,-99.99,VWS V12.07,2013-02-09 22:11:00,
2013-02-09 15:17:00,34.1,26.4,29.80,SSW,196,5.0,8.0,73,0.00,,,-99.99,VWS V12.07,2013-02-09 22:17:00,
2013-02-09 15:23:00,34.1,27.0,29.80,South,189,6.0,6.0,75,0.00,,,-99.99,VWS V12.07,2013-02-09 22:23:00,
2013-02-09 15:29:00,33.8,27.0,29.80,South,191,4.0,7.0,76,0.01,,,-99.99,VWS V12.07,2013-02-09 22:29:00,
2013-02-09 15:35:00,33.8,27.4,29.80,South,191,4.0,6.0,77,0.01,,,-99.99,VWS V12.07,2013-02-09 22:35:00,
2013-02-09 15:41:00,34.1,27.0,29.80,South,191,3.0,6.0,75,0.01,,,-99.99,VWS V12.07,2013-02-09 22:41:00,
2013-02-09 15:49:00,34.4,27.6,29.80,South,191,3.0,4.0,76,0.01,,,-99.99,VWS V12.07,2013-02-09 22:49:00,
2013-02-09 15:55:00,34.6,26.5,29.80,South,191,3.0,6.0,72,0.01,,,-99.99,VWS V12.07,2013-02-09 22:55:00,
2013-02-09 16:01:00,34.9,27.1,29.79,South,189,3.0,6.0,73,0.01,,,-99.99,VWS V12.07,2013-02-09 23:01:00,
2013-02-09 16:07:00,34.9,26.8,29.79,WSW,254,1.0,8.0,72,0.01,,,-99.99,VWS V12.07,2013-02-09 23:07:00,
2013-02-09 16:13:00,34.7,26.6,29.81,SSW,206,2.0,2.0,72,0.01,,,-99.99,VWS V12.07,2013-02-09 23:13:00,
2013-02-09 16:19:00,34.6,26.5,29.81,SSW,206,1.0,3.0,72,0.01,,,-99.99,VWS V12.07,2013-02-09 23:19:00,
2013-02-09 16:25:00,34.7,26.6,29.81,SSW,206,2.0,2.0,72,0.01,,,-99.99,VWS V12.07,2013-02-09 23:25:00,
2013-02-09 16:31:00,34.7,27.0,29.82,WSW,256,2.0,8.0,73,0.00,,,-99.99,VWS V12.07,2013-02-09 23:31:00,
2013-02-09 16:37:00,34.9,25.4,29.82,WNW,288,2.0,4.0,68,0.00,,,-99.99,VWS V12.07,2013-02-09 23:37:00,
2013-02-09 16:43:00,35.3,25.1,29.82,WNW,288,1.0,1.0,66,0.00,,,-99.99,VWS V12.07,2013-02-09 23:43:00,
2013-02-09 16:49:00,35.3,24.0,29.82,WNW,288,1.0,2.0,63,0.00,,,-99.99,VWS V12.07,2013-02-09 23:49:00,
2013-02-09 16:57:00,35.2,24.6,29.83,WSW,247,2.0,8.0,65,0.00,,,-99.99,VWS V12.07,2013-02-09 23:57:00,
2013-02-09 17:03:00,34.7,25.6,29.83,West,281,0.0,1.0,69,0.00,,,-99.99,VWS V12.07,2013-02-10 00:03:00,
2013-02-09 17:09:00,34.3,26.2,29.83,West,281,2.0,3.0,72,0.00,,,-99.99,VWS V12.07,2013-02-10 00:09:00,
2013-02-09 17:15:00,34.0,25.9,29.84,WNW,296,7.0,7.0,72,0.00,,,-99.99,VWS V12.07,2013-02-10 00:15:00,
2013-02-09 17:21:00,33.8,26.1,29.84,WNW,299,0.0,4.0,73,0.00,,,-99.99,VWS V12.07,2013-02-10 00:21:00,
2013-02-09 17:27:00,33.7,25.0,29.84,WNW,299,0.0,3.0,70,0.00,,,-99.99,VWS V12.07,2013-02-10 00:27:00,
2013-02-09 17:33:00,33.8,24.7,29.84,WNW,299,0.0,0.0,69,0.00,,,-99.99,VWS V12.07,2013-02-10 00:33:00,
2013-02-09 17:39:00,33.8,24.4,29.84,WNW,299,0.0,0.0,68,0.00,,,-99.99,VWS V12.07,2013-02-10 00:39:00,
2013-02-09 17:45:00,33.8,24.0,29.85,WNW,299,0.0,0.0,67,0.00,,,-99.99,VWS V12.07,2013-02-10 00:45:00,
2013-02-09 17:51:00,33.7,24.6,29.85,WNW,299,0.0,0.0,69,0.00,,,-99.99,VWS V12.07,2013-02-10 00:51:00,
2013-02-09 17:57:00,33.5,24.4,29.85,WNW,299,0.0,0.0,69,0.00,,,-99.99,VWS V12.07,2013-02-10 00:57:00,
2013-02-09 18:03:00,33.2,24.5,29.85,WNW,299,0.0,0.0,70,0.00,,,-99.99,VWS V12.07,2013-02-10 01:03:00,
2013-02-09 18:09:00,32.9,24.5,29.85,WNW,299,0.0,0.0,71,0.00,,,-99.99,VWS V12.07,2013-02-10 01:09:00,
2013-02-09 18:15:00,32.7,23.7,29.85,WNW,299,0.0,0.0,69,0.00,,,-99.99,VWS V12.07,2013-02-10 01:15:00,
2013-02-09 18:21:00,32.5,24.5,29.85,WNW,299,0.0,0.0,72,0.00,,,-99.99,VWS V12.07,2013-02-10 01:21:00,
2013-02-09 18:27:00,32.4,24.4,29.87,WNW,299,0.0,0.0,72,0.00,,,-99.99,VWS V12.07,2013-02-10 01:27:00,
2013-02-09 18:33:00,32.1,24.1,29.87,WNW,299,0.0,1.0,72,0.00,,,-99.99,VWS V12.07,2013-02-10 01:33:00,
2013-02-09 18:39:00,31.9,24.2,29.87,WNW,299,0.0,0.0,73,0.00,,,-99.99,VWS V12.07,2013-02-10 01:39:00,
2013-02-09 18:45:00,31.8,24.8,29.88,WNW,299,0.0,1.0,75,0.00,,,-99.99,VWS V12.07,2013-02-10 01:45:00,
2013-02-09 18:51:00,31.6,24.9,29.88,WNW,299,0.0,0.0,76,0.00,,,-99.99,VWS V12.07,2013-02-10 01:51:00,
2013-02-09 18:57:00,31.6,24.9,29.88,WNW,299,0.0,0.0,76,0.00,,,-99.99,VWS V12.07,2013-02-10 01:57:00,
2013-02-09 19:04:00,31.5,24.8,29.88,WNW,299,0.0,0.0,76,0.00,,,-99.99,VWS V12.07,2013-02-10 02:04:00,
2013-02-09 19:09:00,31.5,25.1,29.88,WNW,299,0.0,0.0,77,0.00,,,-99.99,VWS V12.07,2013-02-10 02:09:00,
2013-02-09 19:15:00,31.3,24.9,29.88,WNW,299,0.0,0.0,77,0.00,,,-99.99,VWS V12.07,2013-02-10 02:15:00,
2013-02-09 19:21:00,31.2,24.8,29.88,WNW,299,0.0,1.0,77,0.00,,,-99.99,VWS V12.07,2013-02-10 02:21:00,
2013-02-09 19:27:00,31.2,25.1,29.89,WNW,299,0.0,1.0,78,0.00,,,-99.99,VWS V12.07,2013-02-10 02:27:00,
2013-02-09 19:33:00,31.0,25.0,29.89,WNW,299,0.0,0.0,78,0.00,,,-99.99,VWS V12.07,2013-02-10 02:33:00,
2013-02-09 19:39:00,30.9,24.9,29.89,WNW,299,0.0,0.0,78,0.00,,,-99.99,VWS V12.07,2013-02-10 02:39:00,
2013-02-09 19:45:00,30.7,24.7,29.89,WNW,299,0.0,0.0,78,0.00,,,-99.99,VWS V12.07,2013-02-10 02:45:00,
2013-02-09 19:51:00,30.6,24.6,29.89,WNW,299,0.0,0.0,78,0.00,,,-99.99,VWS V12.07,2013-02-10 02:51:00,
2013-02-09 19:57:00,30.6,24.9,29.89,WNW,299,0.0,0.0,79,0.00,,,-99.99,VWS V12.07,2013-02-10 02:57:00,
2013-02-09 20:03:00,30.4,25.0,29.89,WNW,299,0.0,0.0,80,0.00,,,-99.99,VWS V12.07,2013-02-10 03:03:00,
2013-02-09 20:09:00,30.3,24.9,29.89,WNW,299,0.0,0.0,80,0.00,,,-99.99,VWS V12.07,2013-02-10 03:09:00,
2013-02-09 20:15:00,30.1,24.7,29.88,WNW,299,0.0,2.0,80,0.00,,,-99.99,VWS V12.07,2013-02-10 03:15:00,
2013-02-09 20:21:00,30.1,25.3,29.88,WNW,299,1.0,2.0,82,0.00,,,-99.99,VWS V12.07,2013-02-10 03:21:00,
2013-02-09 20:27:00,30.0,25.2,29.88,WNW,299,0.0,0.0,82,0.00,,,-99.99,VWS V12.07,2013-02-10 03:27:00,
2013-02-09 20:33:00,30.0,25.5,29.88,WNW,299,0.0,0.0,83,0.00,,,-99.99,VWS V12.07,2013-02-10 03:33:00,
2013-02-09 20:39:00,29.8,25.3,29.88,WNW,299,2.0,2.0,83,0.00,,,-99.99,VWS V12.07,2013-02-10 03:39:00,
2013-02-09 20:46:00,29.7,25.5,29.89,NW,305,1.0,1.0,84,0.00,,,-99.99,VWS V12.07,2013-02-10 03:46:00,
2013-02-09 20:51:00,29.8,25.6,29.89,ENE,72,0.0,0.0,84,0.00,,,-99.99,VWS V12.07,2013-02-10 03:51:00,
2013-02-09 20:57:00,29.8,25.6,29.89,ENE,72,0.0,0.0,84,0.00,,,-99.99,VWS V12.07,2013-02-10 03:57:00,
2013-02-09 21:03:00,30.0,25.8,29.89,ENE,72,0.0,0.0,84,0.00,,,-99.99,VWS V12.07,2013-02-10 04:03:00,
2013-02-09 21:09:00,30.0,25.8,29.89,ENE,72,0.0,0.0,84,0.00,,,-99.99,VWS V12.07,2013-02-10 04:09:00,
2013-02-09 21:15:00,29.8,25.6,29.87,ENE,72,0.0,1.0,84,0.00,,,-99.99,VWS V12.07,2013-02-10 04:15:00,
2013-02-09 21:21:00,29.8,25.9,29.87,ENE,72,0.0,0.0,85,0.00,,,-99.99,VWS V12.07,2013-02-10 04:21:00,
2013-02-09 21:27:00,30.1,25.9,29.88,SE,145,1.0,5.0,84,0.00,,,-99.99,VWS V12.07,2013-02-10 04:27:00,
2013-02-09 21:33:00,30.1,25.6,29.88,SE,145,0.0,1.0,83,0.00,,,-99.99,VWS V12.07,2013-02-10 04:33:00,
2013-02-09 21:39:00,30.1,25.6,29.88,SE,145,0.0,0.0,83,0.00,,,-99.99,VWS V12.07,2013-02-10 04:39:00,
2013-02-09 21:45:00,30.0,25.5,29.88,SE,145,0.0,0.0,83,0.00,,,-99.99,VWS V12.07,2013-02-10 04:45:00,
2013-02-09 21:51:00,29.8,25.3,29.88,SE,145,0.0,0.0,83,0.00,,,-99.99,VWS V12.07,2013-02-10 04:51:00,
2013-02-09 21:57:00,29.5,25.0,29.88,SE,145,0.0,0.0,83,0.00,,,-99.99,VWS V12.07,2013-02-10 04:57:00,
2013-02-09 22:01:00,29.4,25.2,29.88,SE,145,0.0,0.0,84,0.00,,,-99.99,VWS V12.07,2013-02-10 05:01:00,
2013-02-09 22:03:00,29.4,24.9,29.88,SE,145,0.0,0.0,83,0.00,,,-99.99,VWS V12.07,2013-02-10 05:03:00,
2013-02-09 22:05:00,29.3,25.1,29.88,SE,145,0.0,0.0,84,0.00,,,-99.99,VWS V12.07,2013-02-10 05:05:00,
2013-02-09 22:09:00,29.1,24.9,29.88,SE,145,0.0,0.0,84,0.00,,,-99.99,VWS V12.07,2013-02-10 05:09:00,
2013-02-09 22:15:00,29.1,24.9,29.89,SE,145,0.0,0.0,84,0.00,,,-99.99,VWS V12.07,2013-02-10 05:15:00,
2013-02-09 22:21:00,28.8,24.6,29.89,SE,145,0.0,0.0,84,0.00,,,-99.99,VWS V12.07,2013-02-10 05:21:00,
2013-02-09 22:27:00,28.7,24.5,29.89,SE,145,0.0,0.0,84,0.00,,,-99.99,VWS V12.07,2013-02-10 05:27:00,
2013-02-09 22:33:00,28.4,24.2,29.89,SE,145,0.0,0.0,84,0.00,,,-99.99,VWS V12.07,2013-02-10 05:33:00,
2013-02-09 22:39:00,28.2,24.3,29.89,SE,145,0.0,0.0,85,0.00,,,-99.99,VWS V12.07,2013-02-10 05:39:00,
2013-02-09 22:45:00,27.8,23.9,29.90,SE,145,0.0,0.0,85,0.00,,,-99.99,VWS V12.07,2013-02-10 05:45:00,
2013-02-09 22:51:00,27.5,23.6,29.90,SE,145,0.0,0.0,85,0.00,,,-99.99,VWS V12.07,2013-02-10 05:51:00,
2013-02-09 22:57:00,27.3,23.4,29.90,SE,145,0.0,0.0,85,0.00,,,-99.99,VWS V12.07,2013-02-10 05:57:00,
2013-02-09 23:03:00,27.0,23.1,29.90,SE,145,0.0,0.0,85,0.00,,,-99.99,VWS V12.07,2013-02-10 06:03:00,
2013-02-09 23:09:00,26.7,23.1,29.90,SE,145,0.0,0.0,86,0.00,,,-99.99,VWS V12.07,2013-02-10 06:09:00,
2013-02-09 23:15:00,26.6,23.0,29.90,SE,145,0.0,0.0,86,0.00,,,-99.99,VWS V12.07,2013-02-10 06:15:00,
2013-02-09 23:21:00,26.3,22.7,29.90,SE,145,0.0,0.0,86,0.00,,,-99.99,VWS V12.07,2013-02-10 06:21:00,
2013-02-09 23:27:00,26.1,22.5,29.91,SE,145,0.0,0.0,86,0.00,,,-99.99,VWS V12.07,2013-02-10 06:27:00,
2013-02-09 23:33:00,25.8,22.2,29.91,SE,145,0.0,0.0,86,0.00,,,-99.99,VWS V12.07,2013-02-10 06:33:00,
2013-02-09 23:39:00,25.7,22.1,29.91,SE,145,1.0,1.0,86,0.00,,,-99.99,VWS V12.07,2013-02-10 06:39:00,
2013-02-09 23:45:00,25.4,22.1,29.91,SSW,212,0.0,0.0,87,0.00,,,-99.99,VWS V12.07,2013-02-10 06:45:00,
2013-02-09 23:51:00,25.1,21.8,29.91,SSW,212,0.0,0.0,87,0.00,,,-99.99,VWS V12.07,2013-02-10 06:51:00,
2013-02-09 23:57:00,25.0,21.7,29.92,SSW,212,0.0,1.0,87,0.00,,,-99.99,VWS V12.07,2013-02-10 06:57:00,